sensor_id;sensor_type;location;lat;lon;timestamp;P1;durP1;ratioP1;P2;durP2;ratioP2
15629;SDS011;7914;50.842;0.166;2023-07-13T00:02:22;11.07;;;2.92;;
15629;SDS011;7914;50.842;0.166;2023-07-13T00:04:49;10.73;;;2.58;;
15629;SDS011;7914;50.842;0.166;2023-07-13T00:07:15;12.70;;;2.88;;
15629;SDS011;7914;50.842;0.166;2023-07-13T00:09:45;10.95;;;3.25;;
15629;SDS011;7914;50.842;0.166;2023-07-13T00:12:22;12.05;;;2.97;;
15629;SDS011;7914;50.842;0.166;2023-07-13T00:14:50;10.10;;;3.10;;
15629;SDS011;7914;50.842;0.166;2023-07-13T00:17:16;10.75;;;3.30;;
15629;SDS011;7914;50.842;0.166;2023-07-13T00:19:42;10.60;;;3.03;;
15629;SDS011;7914;50.842;0.166;2023-07-13T00:22:07;14.60;;;2.88;;
15629;SDS011;7914;50.842;0.166;2023-07-13T00:24:33;14.40;;;3.35;;
15629;SDS011;7914;50.842;0.166;2023-07-13T00:27:01;9.77;;;2.83;;
15629;SDS011;7914;50.842;0.166;2023-07-13T00:29:26;12.38;;;2.67;;
15629;SDS011;7914;50.842;0.166;2023-07-13T00:31:52;7.95;;;2.28;;
15629;SDS011;7914;50.842;0.166;2023-07-13T00:34:18;10.80;;;2.72;;
15629;SDS011;7914;50.842;0.166;2023-07-13T00:36:44;12.15;;;3.35;;
15629;SDS011;7914;50.842;0.166;2023-07-13T00:39:09;13.45;;;3.60;;
15629;SDS011;7914;50.842;0.166;2023-07-13T00:41:35;11.02;;;2.88;;
15629;SDS011;7914;50.842;0.166;2023-07-13T00:44:02;10.18;;;2.65;;
15629;SDS011;7914;50.842;0.166;2023-07-13T00:46:32;12.45;;;2.90;;
15629;SDS011;7914;50.842;0.166;2023-07-13T00:49:00;11.30;;;3.08;;
15629;SDS011;7914;50.842;0.166;2023-07-13T00:51:37;15.75;;;3.45;;
15629;SDS011;7914;50.842;0.166;2023-07-13T00:54:08;11.60;;;2.55;;
15629;SDS011;7914;50.842;0.166;2023-07-13T00:56:36;13.85;;;2.70;;
15629;SDS011;7914;50.842;0.166;2023-07-13T00:59:03;13.32;;;2.85;;
15629;SDS011;7914;50.842;0.166;2023-07-13T01:01:30;11.27;;;2.33;;
15629;SDS011;7914;50.842;0.166;2023-07-13T01:03:56;9.77;;;2.53;;
15629;SDS011;7914;50.842;0.166;2023-07-13T01:08:50;7.75;;;2.38;;
15629;SDS011;7914;50.842;0.166;2023-07-13T01:11:20;11.30;;;2.70;;
15629;SDS011;7914;50.842;0.166;2023-07-13T01:13:47;10.10;;;2.88;;
15629;SDS011;7914;50.842;0.166;2023-07-13T01:16:22;14.60;;;4.32;;
15629;SDS011;7914;50.842;0.166;2023-07-13T01:18:55;8.63;;;2.42;;
15629;SDS011;7914;50.842;0.166;2023-07-13T01:21:26;9.85;;;2.60;;
15629;SDS011;7914;50.842;0.166;2023-07-13T01:23:55;11.32;;;2.88;;
15629;SDS011;7914;50.842;0.166;2023-07-13T01:26:21;12.80;;;2.70;;
15629;SDS011;7914;50.842;0.166;2023-07-13T01:28:47;9.43;;;3.17;;
15629;SDS011;7914;50.842;0.166;2023-07-13T01:31:12;11.93;;;2.88;;
15629;SDS011;7914;50.842;0.166;2023-07-13T01:33:39;8.70;;;2.80;;
15629;SDS011;7914;50.842;0.166;2023-07-13T01:36:08;11.88;;;3.20;;
15629;SDS011;7914;50.842;0.166;2023-07-13T01:38:35;10.90;;;2.85;;
15629;SDS011;7914;50.842;0.166;2023-07-13T01:41:01;12.00;;;2.95;;
15629;SDS011;7914;50.842;0.166;2023-07-13T01:43:28;9.35;;;2.60;;
15629;SDS011;7914;50.842;0.166;2023-07-13T01:45:53;7.20;;;2.40;;
15629;SDS011;7914;50.842;0.166;2023-07-13T01:48:19;8.77;;;2.90;;
15629;SDS011;7914;50.842;0.166;2023-07-13T01:50:45;9.20;;;2.50;;
15629;SDS011;7914;50.842;0.166;2023-07-13T01:53:12;7.80;;;3.00;;
15629;SDS011;7914;50.842;0.166;2023-07-13T01:55:38;8.70;;;2.13;;
15629;SDS011;7914;50.842;0.166;2023-07-13T01:58:03;9.05;;;2.40;;
15629;SDS011;7914;50.842;0.166;2023-07-13T02:00:29;8.38;;;3.10;;
15629;SDS011;7914;50.842;0.166;2023-07-13T02:02:55;7.70;;;2.65;;
15629;SDS011;7914;50.842;0.166;2023-07-13T02:05:21;11.80;;;3.30;;
15629;SDS011;7914;50.842;0.166;2023-07-13T02:07:47;13.00;;;3.17;;
15629;SDS011;7914;50.842;0.166;2023-07-13T02:10:12;8.00;;;2.70;;
15629;SDS011;7914;50.842;0.166;2023-07-13T02:12:38;8.05;;;2.40;;
15629;SDS011;7914;50.842;0.166;2023-07-13T02:15:05;14.20;;;2.83;;
15629;SDS011;7914;50.842;0.166;2023-07-13T02:17:31;7.95;;;2.45;;
15629;SDS011;7914;50.842;0.166;2023-07-13T02:19:57;6.43;;;2.60;;
15629;SDS011;7914;50.842;0.166;2023-07-13T02:22:23;14.48;;;3.25;;
15629;SDS011;7914;50.842;0.166;2023-07-13T02:24:49;7.50;;;2.40;;
15629;SDS011;7914;50.842;0.166;2023-07-13T02:27:15;12.00;;;3.47;;
15629;SDS011;7914;50.842;0.166;2023-07-13T02:29:41;8.98;;;2.53;;
15629;SDS011;7914;50.842;0.166;2023-07-13T02:32:07;8.02;;;3.20;;
15629;SDS011;7914;50.842;0.166;2023-07-13T02:34:33;8.77;;;2.47;;
15629;SDS011;7914;50.842;0.166;2023-07-13T02:36:59;11.15;;;2.70;;
15629;SDS011;7914;50.842;0.166;2023-07-13T02:39:25;10.02;;;2.72;;
15629;SDS011;7914;50.842;0.166;2023-07-13T02:41:50;10.90;;;2.85;;
15629;SDS011;7914;50.842;0.166;2023-07-13T02:44:16;10.90;;;3.00;;
15629;SDS011;7914;50.842;0.166;2023-07-13T02:46:42;11.27;;;2.55;;
15629;SDS011;7914;50.842;0.166;2023-07-13T02:49:07;12.48;;;3.05;;
15629;SDS011;7914;50.842;0.166;2023-07-13T02:51:33;10.43;;;2.60;;
15629;SDS011;7914;50.842;0.166;2023-07-13T02:54:02;10.75;;;2.70;;
15629;SDS011;7914;50.842;0.166;2023-07-13T02:56:29;10.15;;;2.33;;
15629;SDS011;7914;50.842;0.166;2023-07-13T02:58:56;9.25;;;2.50;;
15629;SDS011;7914;50.842;0.166;2023-07-13T03:01:23;9.27;;;2.35;;
15629;SDS011;7914;50.842;0.166;2023-07-13T03:03:49;8.60;;;2.67;;
15629;SDS011;7914;50.842;0.166;2023-07-13T03:06:16;7.28;;;2.28;;
15629;SDS011;7914;50.842;0.166;2023-07-13T03:08:42;9.18;;;2.50;;
15629;SDS011;7914;50.842;0.166;2023-07-13T03:11:10;8.02;;;2.38;;
15629;SDS011;7914;50.842;0.166;2023-07-13T03:13:41;5.25;;;2.00;;
15629;SDS011;7914;50.842;0.166;2023-07-13T03:16:07;11.57;;;2.72;;
15629;SDS011;7914;50.842;0.166;2023-07-13T03:18:35;9.18;;;2.35;;
15629;SDS011;7914;50.842;0.166;2023-07-13T03:21:01;7.28;;;2.60;;
15629;SDS011;7914;50.842;0.166;2023-07-13T03:23:27;8.35;;;2.40;;
15629;SDS011;7914;50.842;0.166;2023-07-13T03:26:09;10.60;;;2.95;;
15629;SDS011;7914;50.842;0.166;2023-07-13T03:28:40;7.78;;;2.78;;
15629;SDS011;7914;50.842;0.166;2023-07-13T03:31:07;7.15;;;2.10;;
15629;SDS011;7914;50.842;0.166;2023-07-13T03:33:36;9.10;;;2.70;;
15629;SDS011;7914;50.842;0.166;2023-07-13T03:36:02;6.75;;;2.15;;
15629;SDS011;7914;50.842;0.166;2023-07-13T03:38:29;12.68;;;3.22;;
15629;SDS011;7914;50.842;0.166;2023-07-13T03:40:54;11.38;;;2.45;;
15629;SDS011;7914;50.842;0.166;2023-07-13T03:43:20;8.70;;;2.42;;
15629;SDS011;7914;50.842;0.166;2023-07-13T03:45:46;7.75;;;2.72;;
15629;SDS011;7914;50.842;0.166;2023-07-13T03:48:12;7.28;;;2.63;;
15629;SDS011;7914;50.842;0.166;2023-07-13T03:50:39;8.05;;;2.65;;
15629;SDS011;7914;50.842;0.166;2023-07-13T03:53:05;6.28;;;2.53;;
15629;SDS011;7914;50.842;0.166;2023-07-13T03:55:31;6.68;;;2.22;;
15629;SDS011;7914;50.842;0.166;2023-07-13T03:57:57;11.00;;;3.70;;
15629;SDS011;7914;50.842;0.166;2023-07-13T04:00:25;12.40;;;2.22;;
15629;SDS011;7914;50.842;0.166;2023-07-13T04:02:51;7.65;;;2.13;;
15629;SDS011;7914;50.842;0.166;2023-07-13T04:05:16;7.28;;;2.35;;
15629;SDS011;7914;50.842;0.166;2023-07-13T04:07:42;8.38;;;3.28;;
15629;SDS011;7914;50.842;0.166;2023-07-13T04:10:09;9.13;;;2.63;;
15629;SDS011;7914;50.842;0.166;2023-07-13T04:12:35;8.98;;;2.58;;
15629;SDS011;7914;50.842;0.166;2023-07-13T04:15:01;7.10;;;2.47;;
15629;SDS011;7914;50.842;0.166;2023-07-13T04:17:26;7.72;;;2.15;;
15629;SDS011;7914;50.842;0.166;2023-07-13T04:19:52;9.00;;;2.65;;
15629;SDS011;7914;50.842;0.166;2023-07-13T04:22:18;9.43;;;2.40;;
15629;SDS011;7914;50.842;0.166;2023-07-13T04:24:43;7.47;;;2.35;;
15629;SDS011;7914;50.842;0.166;2023-07-13T04:27:09;7.93;;;2.38;;
15629;SDS011;7914;50.842;0.166;2023-07-13T04:29:35;7.15;;;2.25;;
15629;SDS011;7914;50.842;0.166;2023-07-13T04:32:00;7.32;;;2.28;;
15629;SDS011;7914;50.842;0.166;2023-07-13T04:34:26;8.55;;;2.00;;
15629;SDS011;7914;50.842;0.166;2023-07-13T04:36:52;6.32;;;2.20;;
15629;SDS011;7914;50.842;0.166;2023-07-13T04:39:17;9.85;;;2.50;;
15629;SDS011;7914;50.842;0.166;2023-07-13T04:41:43;11.88;;;2.40;;
15629;SDS011;7914;50.842;0.166;2023-07-13T04:44:09;6.75;;;2.45;;
15629;SDS011;7914;50.842;0.166;2023-07-13T04:46:34;6.88;;;2.15;;
15629;SDS011;7914;50.842;0.166;2023-07-13T04:49:00;6.53;;;1.83;;
15629;SDS011;7914;50.842;0.166;2023-07-13T04:51:28;7.57;;;1.95;;
15629;SDS011;7914;50.842;0.166;2023-07-13T04:53:54;5.78;;;2.03;;
15629;SDS011;7914;50.842;0.166;2023-07-13T04:56:20;6.05;;;2.15;;
15629;SDS011;7914;50.842;0.166;2023-07-13T04:58:45;7.70;;;2.03;;
15629;SDS011;7914;50.842;0.166;2023-07-13T05:01:11;8.82;;;2.00;;
15629;SDS011;7914;50.842;0.166;2023-07-13T05:03:38;6.63;;;2.00;;
15629;SDS011;7914;50.842;0.166;2023-07-13T05:06:05;7.07;;;2.42;;
15629;SDS011;7914;50.842;0.166;2023-07-13T05:08:32;7.82;;;2.30;;
15629;SDS011;7914;50.842;0.166;2023-07-13T05:11:02;7.55;;;2.13;;
15629;SDS011;7914;50.842;0.166;2023-07-13T05:13:29;6.50;;;2.00;;
15629;SDS011;7914;50.842;0.166;2023-07-13T05:15:56;9.95;;;2.22;;
15629;SDS011;7914;50.842;0.166;2023-07-13T05:20:56;4.68;;;1.83;;
15629;SDS011;7914;50.842;0.166;2023-07-13T05:23:27;6.93;;;1.70;;
15629;SDS011;7914;50.842;0.166;2023-07-13T05:25:54;5.93;;;1.60;;
15629;SDS011;7914;50.842;0.166;2023-07-13T05:28:19;5.05;;;1.63;;
15629;SDS011;7914;50.842;0.166;2023-07-13T05:30:46;9.60;;;2.08;;
15629;SDS011;7914;50.842;0.166;2023-07-13T05:33:12;6.88;;;2.13;;
15629;SDS011;7914;50.842;0.166;2023-07-13T05:35:38;5.13;;;1.60;;
15629;SDS011;7914;50.842;0.166;2023-07-13T05:38:04;4.18;;;1.65;;
15629;SDS011;7914;50.842;0.166;2023-07-13T05:40:29;6.72;;;2.17;;
15629;SDS011;7914;50.842;0.166;2023-07-13T05:42:55;5.07;;;1.83;;
15629;SDS011;7914;50.842;0.166;2023-07-13T05:45:21;7.25;;;2.13;;
15629;SDS011;7914;50.842;0.166;2023-07-13T05:47:46;6.45;;;1.70;;
15629;SDS011;7914;50.842;0.166;2023-07-13T05:50:12;6.63;;;1.48;;
15629;SDS011;7914;50.842;0.166;2023-07-13T05:52:38;5.63;;;1.65;;
15629;SDS011;7914;50.842;0.166;2023-07-13T05:55:04;7.93;;;1.58;;
15629;SDS011;7914;50.842;0.166;2023-07-13T05:57:30;4.63;;;1.42;;
15629;SDS011;7914;50.842;0.166;2023-07-13T05:59:56;5.57;;;1.58;;
15629;SDS011;7914;50.842;0.166;2023-07-13T06:02:21;4.88;;;1.20;;
15629;SDS011;7914;50.842;0.166;2023-07-13T06:04:47;6.43;;;1.60;;
15629;SDS011;7914;50.842;0.166;2023-07-13T06:07:13;4.05;;;1.40;;
15629;SDS011;7914;50.842;0.166;2023-07-13T06:09:39;5.43;;;1.63;;
15629;SDS011;7914;50.842;0.166;2023-07-13T06:12:05;6.53;;;1.63;;
15629;SDS011;7914;50.842;0.166;2023-07-13T06:14:31;6.03;;;1.52;;
15629;SDS011;7914;50.842;0.166;2023-07-13T06:16:57;5.20;;;1.50;;
15629;SDS011;7914;50.842;0.166;2023-07-13T06:19:23;5.15;;;1.80;;
15629;SDS011;7914;50.842;0.166;2023-07-13T06:21:49;7.07;;;1.88;;
15629;SDS011;7914;50.842;0.166;2023-07-13T06:24:14;6.15;;;1.65;;
15629;SDS011;7914;50.842;0.166;2023-07-13T06:26:40;5.78;;;1.90;;
15629;SDS011;7914;50.842;0.166;2023-07-13T06:29:06;5.70;;;1.70;;
15629;SDS011;7914;50.842;0.166;2023-07-13T06:31:32;5.75;;;1.52;;
15629;SDS011;7914;50.842;0.166;2023-07-13T06:33:58;3.25;;;1.40;;
15629;SDS011;7914;50.842;0.166;2023-07-13T06:36:24;7.45;;;2.03;;
15629;SDS011;7914;50.842;0.166;2023-07-13T06:38:49;4.90;;;1.60;;
15629;SDS011;7914;50.842;0.166;2023-07-13T06:41:15;5.68;;;1.80;;
15629;SDS011;7914;50.842;0.166;2023-07-13T06:43:41;4.05;;;1.33;;
15629;SDS011;7914;50.842;0.166;2023-07-13T06:46:06;5.60;;;1.65;;
15629;SDS011;7914;50.842;0.166;2023-07-13T06:48:33;5.50;;;1.58;;
15629;SDS011;7914;50.842;0.166;2023-07-13T06:50:58;6.25;;;1.52;;
15629;SDS011;7914;50.842;0.166;2023-07-13T06:53:24;6.82;;;1.55;;
15629;SDS011;7914;50.842;0.166;2023-07-13T06:55:50;4.55;;;1.15;;
15629;SDS011;7914;50.842;0.166;2023-07-13T06:58:17;5.30;;;1.40;;
15629;SDS011;7914;50.842;0.166;2023-07-13T07:00:43;5.35;;;1.40;;
15629;SDS011;7914;50.842;0.166;2023-07-13T07:03:09;5.65;;;1.63;;
15629;SDS011;7914;50.842;0.166;2023-07-13T07:05:35;6.10;;;1.67;;
15629;SDS011;7914;50.842;0.166;2023-07-13T07:08:00;7.07;;;1.60;;
15629;SDS011;7914;50.842;0.166;2023-07-13T07:10:26;3.97;;;1.38;;
15629;SDS011;7914;50.842;0.166;2023-07-13T07:15:19;7.05;;;1.95;;
15629;SDS011;7914;50.842;0.166;2023-07-13T07:17:45;6.97;;;1.52;;
15629;SDS011;7914;50.842;0.166;2023-07-13T07:20:11;6.82;;;1.83;;
15629;SDS011;7914;50.842;0.166;2023-07-13T07:22:38;3.72;;;1.40;;
15629;SDS011;7914;50.842;0.166;2023-07-13T07:25:03;6.20;;;1.67;;
15629;SDS011;7914;50.842;0.166;2023-07-13T07:27:29;5.20;;;1.60;;
15629;SDS011;7914;50.842;0.166;2023-07-13T07:29:55;5.72;;;1.77;;
15629;SDS011;7914;50.842;0.166;2023-07-13T07:32:22;6.15;;;1.77;;
15629;SDS011;7914;50.842;0.166;2023-07-13T07:34:48;8.85;;;2.53;;
15629;SDS011;7914;50.842;0.166;2023-07-13T07:37:14;5.68;;;1.45;;
15629;SDS011;7914;50.842;0.166;2023-07-13T07:39:40;7.40;;;1.85;;
15629;SDS011;7914;50.842;0.166;2023-07-13T07:42:08;6.45;;;1.42;;
15629;SDS011;7914;50.842;0.166;2023-07-13T07:44:34;5.15;;;1.65;;
15629;SDS011;7914;50.842;0.166;2023-07-13T07:47:00;4.68;;;1.60;;
15629;SDS011;7914;50.842;0.166;2023-07-13T07:49:26;5.75;;;2.28;;
15629;SDS011;7914;50.842;0.166;2023-07-13T07:51:51;5.22;;;1.65;;
15629;SDS011;7914;50.842;0.166;2023-07-13T07:54:17;6.13;;;1.70;;
15629;SDS011;7914;50.842;0.166;2023-07-13T07:56:43;6.05;;;1.65;;
15629;SDS011;7914;50.842;0.166;2023-07-13T07:59:09;5.38;;;1.90;;
15629;SDS011;7914;50.842;0.166;2023-07-13T08:01:35;6.78;;;1.65;;
15629;SDS011;7914;50.842;0.166;2023-07-13T08:04:01;6.65;;;1.90;;
15629;SDS011;7914;50.842;0.166;2023-07-13T08:06:26;8.18;;;2.03;;
15629;SDS011;7914;50.842;0.166;2023-07-13T08:08:52;6.82;;;1.95;;
15629;SDS011;7914;50.842;0.166;2023-07-13T08:11:19;5.40;;;1.58;;
15629;SDS011;7914;50.842;0.166;2023-07-13T08:13:46;7.53;;;1.75;;
15629;SDS011;7914;50.842;0.166;2023-07-13T08:16:12;5.50;;;1.52;;
15629;SDS011;7914;50.842;0.166;2023-07-13T08:18:38;10.82;;;3.22;;
15629;SDS011;7914;50.842;0.166;2023-07-13T08:21:04;11.00;;;2.55;;
15629;SDS011;7914;50.842;0.166;2023-07-13T08:23:31;11.55;;;2.95;;
15629;SDS011;7914;50.842;0.166;2023-07-13T08:25:57;9.27;;;2.45;;
15629;SDS011;7914;50.842;0.166;2023-07-13T08:28:24;10.45;;;2.60;;
15629;SDS011;7914;50.842;0.166;2023-07-13T08:30:50;11.07;;;2.85;;
15629;SDS011;7914;50.842;0.166;2023-07-13T08:33:19;10.45;;;3.13;;
15629;SDS011;7914;50.842;0.166;2023-07-13T08:35:46;10.45;;;2.78;;
15629;SDS011;7914;50.842;0.166;2023-07-13T08:38:12;9.15;;;2.70;;
15629;SDS011;7914;50.842;0.166;2023-07-13T08:40:39;7.45;;;2.67;;
15629;SDS011;7914;50.842;0.166;2023-07-13T08:43:07;9.57;;;3.50;;
15629;SDS011;7914;50.842;0.166;2023-07-13T08:45:45;9.25;;;2.90;;
15629;SDS011;7914;50.842;0.166;2023-07-13T08:54:15;8.07;;;3.00;;
15629;SDS011;7914;50.842;0.166;2023-07-13T08:56:45;9.00;;;2.47;;
15629;SDS011;7914;50.842;0.166;2023-07-13T08:59:18;9.30;;;2.30;;
15629;SDS011;7914;50.842;0.166;2023-07-13T09:09:21;11.52;;;2.35;;
15629;SDS011;7914;50.842;0.166;2023-07-13T09:11:50;5.72;;;2.50;;
15629;SDS011;7914;50.842;0.166;2023-07-13T09:17:40;8.02;;;2.20;;
15629;SDS011;7914;50.842;0.166;2023-07-13T09:22:43;11.50;;;2.60;;
15629;SDS011;7914;50.842;0.166;2023-07-13T09:27:45;8.32;;;2.00;;
15629;SDS011;7914;50.842;0.166;2023-07-13T09:32:42;10.48;;;2.40;;
15629;SDS011;7914;50.842;0.166;2023-07-13T09:35:14;8.35;;;2.40;;
15629;SDS011;7914;50.842;0.166;2023-07-13T09:37:44;8.38;;;1.88;;
15629;SDS011;7914;50.842;0.166;2023-07-13T09:40:12;7.95;;;2.10;;
15629;SDS011;7914;50.842;0.166;2023-07-13T09:42:48;8.38;;;1.98;;
15629;SDS011;7914;50.842;0.166;2023-07-13T09:45:17;7.93;;;2.13;;
15629;SDS011;7914;50.842;0.166;2023-07-13T09:47:58;6.63;;;2.58;;
15629;SDS011;7914;50.842;0.166;2023-07-13T09:50:28;8.85;;;2.05;;
15629;SDS011;7914;50.842;0.166;2023-07-13T09:52:54;7.68;;;1.80;;
15629;SDS011;7914;50.842;0.166;2023-07-13T09:55:31;7.13;;;1.73;;
15629;SDS011;7914;50.842;0.166;2023-07-13T09:58:18;9.15;;;2.13;;
15629;SDS011;7914;50.842;0.166;2023-07-13T10:00:55;7.28;;;1.80;;
15629;SDS011;7914;50.842;0.166;2023-07-13T10:03:26;8.18;;;1.63;;
15629;SDS011;7914;50.842;0.166;2023-07-13T10:05:58;8.05;;;2.35;;
15629;SDS011;7914;50.842;0.166;2023-07-13T10:08:35;5.32;;;1.30;;
15629;SDS011;7914;50.842;0.166;2023-07-13T10:11:11;9.85;;;2.15;;
15629;SDS011;7914;50.842;0.166;2023-07-13T10:13:44;7.93;;;2.00;;
15629;SDS011;7914;50.842;0.166;2023-07-13T10:16:15;8.00;;;2.00;;
15629;SDS011;7914;50.842;0.166;2023-07-13T10:18:49;6.95;;;1.67;;
15629;SDS011;7914;50.842;0.166;2023-07-13T10:21:19;6.10;;;1.73;;
15629;SDS011;7914;50.842;0.166;2023-07-13T10:24:21;6.05;;;2.15;;
15629;SDS011;7914;50.842;0.166;2023-07-13T10:32:45;8.68;;;2.20;;
15629;SDS011;7914;50.842;0.166;2023-07-13T10:35:12;7.78;;;1.80;;
15629;SDS011;7914;50.842;0.166;2023-07-13T10:37:44;8.45;;;2.00;;
15629;SDS011;7914;50.842;0.166;2023-07-13T10:43:43;10.45;;;1.88;;
15629;SDS011;7914;50.842;0.166;2023-07-13T10:46:16;4.63;;;1.38;;
15629;SDS011;7914;50.842;0.166;2023-07-13T10:48:44;9.57;;;2.13;;
15629;SDS011;7914;50.842;0.166;2023-07-13T10:51:16;7.30;;;1.40;;
15629;SDS011;7914;50.842;0.166;2023-07-13T10:53:46;6.35;;;1.48;;
15629;SDS011;7914;50.842;0.166;2023-07-13T10:56:22;7.60;;;1.98;;
15629;SDS011;7914;50.842;0.166;2023-07-13T10:59:02;7.28;;;1.65;;
15629;SDS011;7914;50.842;0.166;2023-07-13T11:01:40;5.55;;;1.73;;
15629;SDS011;7914;50.842;0.166;2023-07-13T11:04:13;10.00;;;1.50;;
15629;SDS011;7914;50.842;0.166;2023-07-13T11:06:40;6.22;;;1.50;;
15629;SDS011;7914;50.842;0.166;2023-07-13T11:09:20;4.55;;;1.33;;
15629;SDS011;7914;50.842;0.166;2023-07-13T11:14:37;7.20;;;1.58;;
15629;SDS011;7914;50.842;0.166;2023-07-13T11:22:48;7.53;;;1.70;;
15629;SDS011;7914;50.842;0.166;2023-07-13T11:27:51;7.40;;;1.73;;
15629;SDS011;7914;50.842;0.166;2023-07-13T11:35:51;8.10;;;1.45;;
15629;SDS011;7914;50.842;0.166;2023-07-13T11:38:20;7.63;;;1.83;;
15629;SDS011;7914;50.842;0.166;2023-07-13T11:40:48;5.85;;;1.50;;
15629;SDS011;7914;50.842;0.166;2023-07-13T11:43:18;6.22;;;1.40;;
15629;SDS011;7914;50.842;0.166;2023-07-13T11:45:44;5.18;;;1.20;;
15629;SDS011;7914;50.842;0.166;2023-07-13T11:48:29;4.47;;;1.30;;
15629;SDS011;7914;50.842;0.166;2023-07-13T11:51:00;7.15;;;1.67;;
15629;SDS011;7914;50.842;0.166;2023-07-13T11:53:31;6.13;;;1.42;;
15629;SDS011;7914;50.842;0.166;2023-07-13T11:56:03;7.63;;;1.73;;
15629;SDS011;7914;50.842;0.166;2023-07-13T11:58:30;6.60;;;1.70;;
15629;SDS011;7914;50.842;0.166;2023-07-13T12:00:58;5.00;;;1.75;;
15629;SDS011;7914;50.842;0.166;2023-07-13T12:03:26;8.13;;;1.85;;
15629;SDS011;7914;50.842;0.166;2023-07-13T12:05:57;8.65;;;2.10;;
15629;SDS011;7914;50.842;0.166;2023-07-13T12:08:28;7.82;;;1.83;;
15629;SDS011;7914;50.842;0.166;2023-07-13T12:11:03;8.30;;;2.13;;
15629;SDS011;7914;50.842;0.166;2023-07-13T12:13:34;7.22;;;2.17;;
15629;SDS011;7914;50.842;0.166;2023-07-13T12:16:11;7.75;;;2.13;;
15629;SDS011;7914;50.842;0.166;2023-07-13T12:18:40;11.68;;;2.53;;
15629;SDS011;7914;50.842;0.166;2023-07-13T12:21:12;8.90;;;2.42;;
15629;SDS011;7914;50.842;0.166;2023-07-13T12:23:39;7.88;;;2.50;;
15629;SDS011;7914;50.842;0.166;2023-07-13T12:26:08;8.60;;;2.03;;
15629;SDS011;7914;50.842;0.166;2023-07-13T12:28:44;8.15;;;2.08;;
15629;SDS011;7914;50.842;0.166;2023-07-13T12:31:25;6.25;;;2.13;;
15629;SDS011;7914;50.842;0.166;2023-07-13T12:34:21;10.30;;;2.30;;
15629;SDS011;7914;50.842;0.166;2023-07-13T12:36:56;8.30;;;2.10;;
15629;SDS011;7914;50.842;0.166;2023-07-13T12:39:45;6.18;;;2.17;;
15629;SDS011;7914;50.842;0.166;2023-07-13T12:42:34;7.68;;;2.38;;
15629;SDS011;7914;50.842;0.166;2023-07-13T12:45:01;8.90;;;2.00;;
15629;SDS011;7914;50.842;0.166;2023-07-13T12:47:38;10.32;;;2.75;;
15629;SDS011;7914;50.842;0.166;2023-07-13T12:50:14;7.80;;;2.30;;
15629;SDS011;7914;50.842;0.166;2023-07-13T12:52:43;7.70;;;2.75;;
15629;SDS011;7914;50.842;0.166;2023-07-13T12:55:17;6.93;;;1.98;;
15629;SDS011;7914;50.842;0.166;2023-07-13T12:57:50;7.47;;;1.92;;
15629;SDS011;7914;50.842;0.166;2023-07-13T13:00:23;8.55;;;1.90;;
15629;SDS011;7914;50.842;0.166;2023-07-13T13:10:51;6.03;;;1.90;;
15629;SDS011;7914;50.842;0.166;2023-07-13T13:13:16;10.73;;;1.80;;
15629;SDS011;7914;50.842;0.166;2023-07-13T13:15:42;7.63;;;2.05;;
15629;SDS011;7914;50.842;0.166;2023-07-13T13:18:26;9.48;;;1.80;;
15629;SDS011;7914;50.842;0.166;2023-07-13T13:20:52;7.28;;;2.03;;
15629;SDS011;7914;50.842;0.166;2023-07-13T13:23:18;7.78;;;2.20;;
15629;SDS011;7914;50.842;0.166;2023-07-13T13:25:46;9.88;;;2.92;;
15629;SDS011;7914;50.842;0.166;2023-07-13T13:28:19;9.93;;;2.67;;
15629;SDS011;7914;50.842;0.166;2023-07-13T13:30:46;9.10;;;2.55;;
15629;SDS011;7914;50.842;0.166;2023-07-13T13:33:15;9.90;;;2.55;;
15629;SDS011;7914;50.842;0.166;2023-07-13T13:35:42;10.98;;;2.83;;
15629;SDS011;7914;50.842;0.166;2023-07-13T13:38:16;7.47;;;2.45;;
15629;SDS011;7914;50.842;0.166;2023-07-13T13:40:45;9.73;;;2.20;;
15629;SDS011;7914;50.842;0.166;2023-07-13T13:43:15;8.63;;;2.70;;
15629;SDS011;7914;50.842;0.166;2023-07-13T13:45:51;8.55;;;2.40;;
15629;SDS011;7914;50.842;0.166;2023-07-13T13:48:19;8.80;;;2.25;;
15629;SDS011;7914;50.842;0.166;2023-07-13T13:50:55;10.45;;;2.75;;
15629;SDS011;7914;50.842;0.166;2023-07-13T13:53:21;13.50;;;2.40;;
15629;SDS011;7914;50.842;0.166;2023-07-13T13:55:48;9.25;;;2.33;;
15629;SDS011;7914;50.842;0.166;2023-07-13T13:58:15;8.40;;;2.72;;
15629;SDS011;7914;50.842;0.166;2023-07-13T14:00:41;9.20;;;2.70;;
15629;SDS011;7914;50.842;0.166;2023-07-13T14:03:20;7.10;;;2.13;;
15629;SDS011;7914;50.842;0.166;2023-07-13T14:05:47;9.63;;;2.25;;
15629;SDS011;7914;50.842;0.166;2023-07-13T14:08:18;8.20;;;1.77;;
15629;SDS011;7914;50.842;0.166;2023-07-13T14:10:45;6.70;;;1.92;;
15629;SDS011;7914;50.842;0.166;2023-07-13T14:14:15;6.57;;;1.67;;
15629;SDS011;7914;50.842;0.166;2023-07-13T14:16:18;7.25;;;1.70;;
15629;SDS011;7914;50.842;0.166;2023-07-13T14:18:46;8.65;;;1.80;;
15629;SDS011;7914;50.842;0.166;2023-07-13T14:21:13;8.27;;;2.13;;
15629;SDS011;7914;50.842;0.166;2023-07-13T14:23:41;6.03;;;1.70;;
15629;SDS011;7914;50.842;0.166;2023-07-13T14:28:43;5.68;;;1.52;;
15629;SDS011;7914;50.842;0.166;2023-07-13T14:31:11;6.60;;;1.60;;
15629;SDS011;7914;50.842;0.166;2023-07-13T14:38:47;7.75;;;1.42;;
15629;SDS011;7914;50.842;0.166;2023-07-13T14:41:13;4.63;;;1.33;;
15629;SDS011;7914;50.842;0.166;2023-07-13T14:43:39;6.55;;;1.77;;
15629;SDS011;7914;50.842;0.166;2023-07-13T14:46:05;6.35;;;1.80;;
15629;SDS011;7914;50.842;0.166;2023-07-13T14:48:41;5.15;;;1.65;;
15629;SDS011;7914;50.842;0.166;2023-07-13T14:51:09;6.68;;;1.90;;
15629;SDS011;7914;50.842;0.166;2023-07-13T14:53:35;4.97;;;1.95;;
15629;SDS011;7914;50.842;0.166;2023-07-13T14:56:09;9.35;;;2.50;;
15629;SDS011;7914;50.842;0.166;2023-07-13T14:58:36;5.35;;;1.70;;
15629;SDS011;7914;50.842;0.166;2023-07-13T15:01:01;6.40;;;1.75;;
15629;SDS011;7914;50.842;0.166;2023-07-13T15:03:27;4.88;;;1.20;;
15629;SDS011;7914;50.842;0.166;2023-07-13T15:05:53;4.53;;;1.45;;
15629;SDS011;7914;50.842;0.166;2023-07-13T15:08:19;5.65;;;1.75;;
15629;SDS011;7914;50.842;0.166;2023-07-13T15:10:44;7.10;;;2.17;;
15629;SDS011;7914;50.842;0.166;2023-07-13T15:13:17;7.60;;;2.05;;
15629;SDS011;7914;50.842;0.166;2023-07-13T15:15:48;6.35;;;2.00;;
15629;SDS011;7914;50.842;0.166;2023-07-13T15:18:17;7.10;;;1.75;;
15629;SDS011;7914;50.842;0.166;2023-07-13T15:20:45;8.98;;;1.95;;
15629;SDS011;7914;50.842;0.166;2023-07-13T15:23:14;5.65;;;2.05;;
15629;SDS011;7914;50.842;0.166;2023-07-13T15:28:07;6.05;;;2.08;;
15629;SDS011;7914;50.842;0.166;2023-07-13T15:30:46;8.63;;;2.70;;
15629;SDS011;7914;50.842;0.166;2023-07-13T15:33:25;8.23;;;2.08;;
15629;SDS011;7914;50.842;0.166;2023-07-13T15:35:54;8.20;;;2.38;;
15629;SDS011;7914;50.842;0.166;2023-07-13T15:38:30;6.90;;;2.20;;
15629;SDS011;7914;50.842;0.166;2023-07-13T15:40:56;8.02;;;2.10;;
15629;SDS011;7914;50.842;0.166;2023-07-13T15:43:22;6.97;;;1.88;;
15629;SDS011;7914;50.842;0.166;2023-07-13T15:45:48;10.95;;;2.53;;
15629;SDS011;7914;50.842;0.166;2023-07-13T15:50:50;6.55;;;2.17;;
15629;SDS011;7914;50.842;0.166;2023-07-13T15:53:19;8.20;;;2.28;;
15629;SDS011;7914;50.842;0.166;2023-07-13T15:55:47;10.55;;;2.30;;
15629;SDS011;7914;50.842;0.166;2023-07-13T15:58:14;10.52;;;2.25;;
15629;SDS011;7914;50.842;0.166;2023-07-13T16:00:41;6.13;;;1.90;;
15629;SDS011;7914;50.842;0.166;2023-07-13T16:03:07;10.82;;;2.72;;
15629;SDS011;7914;50.842;0.166;2023-07-13T16:05:34;6.82;;;2.55;;
15629;SDS011;7914;50.842;0.166;2023-07-13T16:08:00;10.50;;;2.60;;
15629;SDS011;7914;50.842;0.166;2023-07-13T16:10:33;11.65;;;2.75;;
15629;SDS011;7914;50.842;0.166;2023-07-13T16:15:29;10.57;;;2.40;;
15629;SDS011;7914;50.842;0.166;2023-07-13T16:17:56;9.35;;;2.35;;
15629;SDS011;7914;50.842;0.166;2023-07-13T16:20:22;8.15;;;2.13;;
15629;SDS011;7914;50.842;0.166;2023-07-13T16:22:50;11.05;;;2.40;;
15629;SDS011;7914;50.842;0.166;2023-07-13T16:25:22;8.27;;;2.33;;
15629;SDS011;7914;50.842;0.166;2023-07-13T16:27:50;10.77;;;2.45;;